PATK/TKA METAR and TAF weather

Enter ICAO airport designator
Station Type Date Time Source
PATK METAR 2020/07/14 05:53 UTC NOAA

PATK 140553Z AUTO 00000KT 10SM CLR 20/07 A2986 RMK AO2 SLP115 60000 T02000072 10217 20200 56003 TSNO


Station Type Date Time Source
PATK Decoded METAR 2020/07/14 05:53 UTC NOAA

TALKEETNA AIRPORT, AK, United States (PATK) 62-19N 150-06W 109M
Jul 14, 2020 - 01:53 AM EDT / 2020.07.14 0553 UTC
Wind: Calm:0
Visibility: 10 mile(s):0
Sky conditions: clear
Temperature: 68.0 F (20.0 C)
Dew Point: 45.0 F (7.2 C)
Relative Humidity: 43%
Pressure (altimeter): 29.86 in. Hg (1011 hPa)
Pressure tendency: 0.01 inches (0.3 hPa) lower than three hours ago
ob: PATK 140553Z AUTO 00000KT 10SM CLR 20/07 A2986 RMK AO2 SLP115 60000 T02000072 10217 20200 56003 TSNO
cycle: 6

Station Type Date Time Source
PATK TAF 2020/07/14 06:42 UTC NOAA

TAF PATK 140540Z 1406/1506 VRB02KT P6SM FEW120

Example: see airport list